Aeroporto :
LOGIN :

Iscrizione | Disclaimer

   EN    FR    IT 

 










Sommario :    VFR   VFR Marginale   IFR   IFR Intensivo   IFR Molto Intensivo
Visibilità : 
Base nubi : 
>= 8 km
>= 3000ft
5 / 8 km
1000 / 3000 ft
1500m / 5 km
500 / 1000 ft
800 / 1500m
200 / 500 ft
< 800m
< 200 ft
Simboli :   Temporali  Nebbia  Neve Forte  Precipitazioni Forti  Vento > 20 kt
SIGMETs :   Varie  Temporali  Ghiacco  Turbolenza  Onda orograficha  Ceneri Vulcaniche






- Altitudine del aeroporto : 18 ft


LIPC - Cervia AFB Ravenna

ULTIMO METAR :
  • 211755Z 26005KT 1500 BR FEW005 09/06 Q1012 RMK SCT SCT070 VIS MIN 1500 WIND THR11 /////KT WIND THR29 25005KT AMB

METARs OBSOLETI :
  • 211655Z 31004KT 1700 BR BKN005 10/07 Q1012 RMK BKN SCT070 VIS MIN 1700 WIND THR11 /////KT WIND THR29 32004KT YLO
  • 211555Z 32003KT 2000 BR BKN005 11/08 Q1012 RMK OVC SCT100 VIS MIN 2000 WIND THR11 /////KT WIND THR29 32003KT YLO

TAF AMD TAF LIPC
Valido dal 21 a 18 ore il 22 a 03 ore UTC


211810Z 2118/2203 15005KT 3000 BR FEW010 SCT050
TEMPO 2118/2203 1500 BR SCT008



MetMap, La meteo Aeronautica in un colpo d'occhio ! - Copyright ORBIFLY Dicembre 2007 - Disclaimer

ORBIFLY MET'MAP TEAM :

Programmazione e sviluppo : Alexandra Zaïnal
Concezione e sviluppo : Baudouin d'Aumeries
Co-Programmazione e sviluppo : Marc-Olivier Méhu
Supporto tecnico e logistico : Manuel Goepfert
Aiuto per la traduzione : Arnaldo La Scala

Contatto : metmap@orbifly.com




FONTI E CREDITI :

   NOAA